sensor_id;sensor_type;location;lat;lon;timestamp;temperature;humidity
50804;DHT22;37205;51.434;6.756;2022-07-29T00:02:07;19.90;98.80
50804;DHT22;37205;51.434;6.756;2022-07-29T00:04:36;20.00;98.90
50804;DHT22;37205;51.434;6.756;2022-07-29T00:07:03;19.90;98.80
50804;DHT22;37205;51.434;6.756;2022-07-29T00:09:28;19.90;98.80
50804;DHT22;37205;51.434;6.756;2022-07-29T00:11:57;19.90;98.90
50804;DHT22;37205;51.434;6.756;2022-07-29T00:14:23;19.90;98.90
50804;DHT22;37205;51.434;6.756;2022-07-29T00:16:49;19.80;98.90
50804;DHT22;37205;51.434;6.756;2022-07-29T00:19:15;19.80;99.20
50804;DHT22;37205;51.434;6.756;2022-07-29T00:21:40;19.80;99.10
50804;DHT22;37205;51.434;6.756;2022-07-29T00:24:06;19.80;99.00
50804;DHT22;37205;51.434;6.756;2022-07-29T00:26:31;19.80;99.10
50804;DHT22;37205;51.434;6.756;2022-07-29T00:28:59;19.80;99.00
50804;DHT22;37205;51.434;6.756;2022-07-29T00:31:25;19.80;99.00
50804;DHT22;37205;51.434;6.756;2022-07-29T00:33:51;19.70;99.20
50804;DHT22;37205;51.434;6.756;2022-07-29T00:36:17;19.80;99.20
50804;DHT22;37205;51.434;6.756;2022-07-29T00:38:42;19.80;99.20
50804;DHT22;37205;51.434;6.756;2022-07-29T00:41:11;19.80;99.20
50804;DHT22;37205;51.434;6.756;2022-07-29T00:43:37;19.70;99.30
50804;DHT22;37205;51.434;6.756;2022-07-29T00:46:02;19.60;99.40
50804;DHT22;37205;51.434;6.756;2022-07-29T00:48:28;19.60;99.40
50804;DHT22;37205;51.434;6.756;2022-07-29T00:50:55;19.60;99.40
50804;DHT22;37205;51.434;6.756;2022-07-29T00:53:22;19.60;99.50
50804;DHT22;37205;51.434;6.756;2022-07-29T00:55:49;19.60;99.50
50804;DHT22;37205;51.434;6.756;2022-07-29T00:58:15;19.50;99.50
50804;DHT22;37205;51.434;6.756;2022-07-29T01:00:40;19.50;99.60
50804;DHT22;37205;51.434;6.756;2022-07-29T01:03:07;19.50;99.60
50804;DHT22;37205;51.434;6.756;2022-07-29T01:05:33;19.50;99.70
50804;DHT22;37205;51.434;6.756;2022-07-29T01:07:59;19.50;99.60
50804;DHT22;37205;51.434;6.756;2022-07-29T01:10:28;19.50;99.70
50804;DHT22;37205;51.434;6.756;2022-07-29T01:12:57;19.40;99.70
50804;DHT22;37205;51.434;6.756;2022-07-29T01:15:24;19.40;99.80
50804;DHT22;37205;51.434;6.756;2022-07-29T01:18:07;19.40;99.90
50804;DHT22;37205;51.434;6.756;2022-07-29T01:24:04;19.30;99.90
50804;DHT22;37205;51.434;6.756;2022-07-29T01:26:47;19.20;99.90
50804;DHT22;37205;51.434;6.756;2022-07-29T01:37:28;19.20;99.90
50804;DHT22;37205;51.434;6.756;2022-07-29T01:39:56;19.20;99.90
50804;DHT22;37205;51.434;6.756;2022-07-29T01:42:38;19.20;99.90
50804;DHT22;37205;51.434;6.756;2022-07-29T01:45:36;19.20;99.90
50804;DHT22;37205;51.434;6.756;2022-07-29T01:48:12;19.20;99.90
50804;DHT22;37205;51.434;6.756;2022-07-29T01:50:56;19.20;99.90
50804;DHT22;37205;51.434;6.756;2022-07-29T01:53:36;19.20;99.90
50804;DHT22;37205;51.434;6.756;2022-07-29T01:56:03;19.10;99.90
50804;DHT22;37205;51.434;6.756;2022-07-29T01:58:31;19.10;99.90
50804;DHT22;37205;51.434;6.756;2022-07-29T02:00:58;19.10;99.90
50804;DHT22;37205;51.434;6.756;2022-07-29T02:03:25;19.10;99.90
50804;DHT22;37205;51.434;6.756;2022-07-29T02:05:53;19.10;99.90
50804;DHT22;37205;51.434;6.756;2022-07-29T02:08:21;19.10;99.90
50804;DHT22;37205;51.434;6.756;2022-07-29T02:10:48;19.10;99.90
50804;DHT22;37205;51.434;6.756;2022-07-29T02:13:16;19.10;99.90
50804;DHT22;37205;51.434;6.756;2022-07-29T02:15:44;19.10;99.90
50804;DHT22;37205;51.434;6.756;2022-07-29T02:18:15;19.00;99.90
50804;DHT22;37205;51.434;6.756;2022-07-29T02:20:45;19.00;99.90
50804;DHT22;37205;51.434;6.756;2022-07-29T02:23:12;18.90;99.90
50804;DHT22;37205;51.434;6.756;2022-07-29T02:25:41;19.00;99.90
50804;DHT22;37205;51.434;6.756;2022-07-29T02:28:07;19.00;99.90
50804;DHT22;37205;51.434;6.756;2022-07-29T02:30:35;19.00;99.90
50804;DHT22;37205;51.434;6.756;2022-07-29T02:33:01;19.00;99.90
50804;DHT22;37205;51.434;6.756;2022-07-29T02:35:29;19.10;99.90
50804;DHT22;37205;51.434;6.756;2022-07-29T02:37:55;19.10;99.90
50804;DHT22;37205;51.434;6.756;2022-07-29T02:40:42;19.10;99.90
50804;DHT22;37205;51.434;6.756;2022-07-29T02:43:09;19.10;99.90
50804;DHT22;37205;51.434;6.756;2022-07-29T02:45:36;19.10;99.90
50804;DHT22;37205;51.434;6.756;2022-07-29T02:48:06;19.00;99.90
50804;DHT22;37205;51.434;6.756;2022-07-29T02:50:40;19.00;99.90
50804;DHT22;37205;51.434;6.756;2022-07-29T02:53:14;18.90;99.90
50804;DHT22;37205;51.434;6.756;2022-07-29T02:55:45;18.90;99.90
50804;DHT22;37205;51.434;6.756;2022-07-29T03:00:46;18.80;99.90
50804;DHT22;37205;51.434;6.756;2022-07-29T03:03:13;18.70;99.90
50804;DHT22;37205;51.434;6.756;2022-07-29T03:05:40;18.60;99.90
50804;DHT22;37205;51.434;6.756;2022-07-29T03:08:08;18.50;99.90
50804;DHT22;37205;51.434;6.756;2022-07-29T03:10:34;18.40;99.90
50804;DHT22;37205;51.434;6.756;2022-07-29T03:13:02;18.40;99.90
50804;DHT22;37205;51.434;6.756;2022-07-29T03:15:30;18.30;99.90
50804;DHT22;37205;51.434;6.756;2022-07-29T03:17:56;18.40;99.90
50804;DHT22;37205;51.434;6.756;2022-07-29T03:20:25;18.30;99.90
50804;DHT22;37205;51.434;6.756;2022-07-29T03:22:51;18.30;99.90
50804;DHT22;37205;51.434;6.756;2022-07-29T03:25:18;18.20;99.90
50804;DHT22;37205;51.434;6.756;2022-07-29T03:27:44;18.10;99.90
50804;DHT22;37205;51.434;6.756;2022-07-29T03:30:11;18.10;99.90
50804;DHT22;37205;51.434;6.756;2022-07-29T03:32:37;18.10;99.90
50804;DHT22;37205;51.434;6.756;2022-07-29T03:35:03;18.10;99.90
50804;DHT22;37205;51.434;6.756;2022-07-29T03:37:29;18.00;99.90
50804;DHT22;37205;51.434;6.756;2022-07-29T03:39:57;17.90;99.90
50804;DHT22;37205;51.434;6.756;2022-07-29T03:42:25;17.90;99.90
50804;DHT22;37205;51.434;6.756;2022-07-29T03:44:52;17.90;99.90
50804;DHT22;37205;51.434;6.756;2022-07-29T03:47:23;17.80;99.90
50804;DHT22;37205;51.434;6.756;2022-07-29T03:49:52;17.80;99.90
50804;DHT22;37205;51.434;6.756;2022-07-29T03:52:19;17.80;99.90
50804;DHT22;37205;51.434;6.756;2022-07-29T03:54:45;17.80;99.90
50804;DHT22;37205;51.434;6.756;2022-07-29T03:57:12;17.80;99.90
50804;DHT22;37205;51.434;6.756;2022-07-29T03:59:39;17.80;99.90
50804;DHT22;37205;51.434;6.756;2022-07-29T04:02:09;17.80;99.90
50804;DHT22;37205;51.434;6.756;2022-07-29T04:04:36;17.60;99.90
50804;DHT22;37205;51.434;6.756;2022-07-29T04:07:02;17.60;99.90
50804;DHT22;37205;51.434;6.756;2022-07-29T04:09:28;17.60;99.90
50804;DHT22;37205;51.434;6.756;2022-07-29T04:11:54;17.60;99.90
50804;DHT22;37205;51.434;6.756;2022-07-29T04:14:20;17.60;99.90
50804;DHT22;37205;51.434;6.756;2022-07-29T04:16:46;17.60;99.90
50804;DHT22;37205;51.434;6.756;2022-07-29T04:19:11;17.50;99.90
50804;DHT22;37205;51.434;6.756;2022-07-29T04:21:41;17.30;99.90
50804;DHT22;37205;51.434;6.756;2022-07-29T04:24:07;17.20;99.90
50804;DHT22;37205;51.434;6.756;2022-07-29T04:26:33;17.20;99.90
50804;DHT22;37205;51.434;6.756;2022-07-29T04:28:59;17.20;99.90
50804;DHT22;37205;51.434;6.756;2022-07-29T04:31:25;17.10;99.90
50804;DHT22;37205;51.434;6.756;2022-07-29T04:33:50;17.20;99.90
50804;DHT22;37205;51.434;6.756;2022-07-29T04:36:16;17.20;99.90
50804;DHT22;37205;51.434;6.756;2022-07-29T04:38:41;17.10;99.90
50804;DHT22;37205;51.434;6.756;2022-07-29T04:41:07;17.00;99.90
50804;DHT22;37205;51.434;6.756;2022-07-29T04:43:34;16.90;99.90
50804;DHT22;37205;51.434;6.756;2022-07-29T04:46:00;16.90;99.90
50804;DHT22;37205;51.434;6.756;2022-07-29T04:48:26;16.90;99.90
50804;DHT22;37205;51.434;6.756;2022-07-29T04:50:52;17.00;99.90
50804;DHT22;37205;51.434;6.756;2022-07-29T04:53:18;17.00;99.90
50804;DHT22;37205;51.434;6.756;2022-07-29T04:55:44;17.00;99.90
50804;DHT22;37205;51.434;6.756;2022-07-29T04:58:10;16.90;99.90
50804;DHT22;37205;51.434;6.756;2022-07-29T05:00:36;16.90;99.90
50804;DHT22;37205;51.434;6.756;2022-07-29T05:03:01;16.80;99.90
50804;DHT22;37205;51.434;6.756;2022-07-29T05:05:27;16.80;99.90
50804;DHT22;37205;51.434;6.756;2022-07-29T05:07:53;16.70;99.90
50804;DHT22;37205;51.434;6.756;2022-07-29T05:10:18;16.70;99.90
50804;DHT22;37205;51.434;6.756;2022-07-29T05:12:44;16.70;99.90
50804;DHT22;37205;51.434;6.756;2022-07-29T05:15:09;16.70;99.90
50804;DHT22;37205;51.434;6.756;2022-07-29T05:17:35;16.80;99.90
50804;DHT22;37205;51.434;6.756;2022-07-29T05:20:01;16.80;99.90
50804;DHT22;37205;51.434;6.756;2022-07-29T05:22:30;16.80;99.90
50804;DHT22;37205;51.434;6.756;2022-07-29T05:24:55;16.80;99.90
50804;DHT22;37205;51.434;6.756;2022-07-29T05:27:24;16.80;99.90
50804;DHT22;37205;51.434;6.756;2022-07-29T05:29:52;16.80;99.90
50804;DHT22;37205;51.434;6.756;2022-07-29T05:32:18;16.80;99.90
50804;DHT22;37205;51.434;6.756;2022-07-29T05:34:43;16.80;99.90
50804;DHT22;37205;51.434;6.756;2022-07-29T05:37:12;16.90;99.90
50804;DHT22;37205;51.434;6.756;2022-07-29T05:39:39;16.80;99.90
50804;DHT22;37205;51.434;6.756;2022-07-29T05:42:08;16.70;99.90
50804;DHT22;37205;51.434;6.756;2022-07-29T05:44:37;16.70;99.90
50804;DHT22;37205;51.434;6.756;2022-07-29T05:47:03;16.70;99.90
50804;DHT22;37205;51.434;6.756;2022-07-29T05:49:32;16.70;99.90
50804;DHT22;37205;51.434;6.756;2022-07-29T05:51:57;16.70;99.90
50804;DHT22;37205;51.434;6.756;2022-07-29T05:54:23;16.70;99.90
50804;DHT22;37205;51.434;6.756;2022-07-29T05:56:49;16.70;99.90
50804;DHT22;37205;51.434;6.756;2022-07-29T05:59:14;16.70;99.90
50804;DHT22;37205;51.434;6.756;2022-07-29T06:01:40;16.70;99.90
50804;DHT22;37205;51.434;6.756;2022-07-29T06:04:06;16.70;99.90
50804;DHT22;37205;51.434;6.756;2022-07-29T06:06:33;16.60;99.90
50804;DHT22;37205;51.434;6.756;2022-07-29T06:08:59;16.60;99.90
50804;DHT22;37205;51.434;6.756;2022-07-29T06:11:24;16.60;99.90
50804;DHT22;37205;51.434;6.756;2022-07-29T06:13:50;16.70;99.90
50804;DHT22;37205;51.434;6.756;2022-07-29T06:16:16;16.70;99.90
50804;DHT22;37205;51.434;6.756;2022-07-29T06:18:41;16.80;99.90
50804;DHT22;37205;51.434;6.756;2022-07-29T06:21:08;16.70;99.90
50804;DHT22;37205;51.434;6.756;2022-07-29T06:23:35;16.70;99.90
50804;DHT22;37205;51.434;6.756;2022-07-29T06:29:24;16.70;99.90
50804;DHT22;37205;51.434;6.756;2022-07-29T06:31:50;16.80;99.90
50804;DHT22;37205;51.434;6.756;2022-07-29T06:34:16;16.90;99.90
50804;DHT22;37205;51.434;6.756;2022-07-29T06:36:41;17.00;99.90
50804;DHT22;37205;51.434;6.756;2022-07-29T06:39:07;17.00;99.90
50804;DHT22;37205;51.434;6.756;2022-07-29T06:41:33;17.00;99.90
50804;DHT22;37205;51.434;6.756;2022-07-29T06:43:59;17.10;99.90
50804;DHT22;37205;51.434;6.756;2022-07-29T06:46:25;17.20;99.90
50804;DHT22;37205;51.434;6.756;2022-07-29T06:48:51;17.20;99.90
50804;DHT22;37205;51.434;6.756;2022-07-29T06:51:17;17.20;99.90
50804;DHT22;37205;51.434;6.756;2022-07-29T06:53:43;17.30;99.90
50804;DHT22;37205;51.434;6.756;2022-07-29T06:56:08;17.30;99.90
50804;DHT22;37205;51.434;6.756;2022-07-29T06:58:35;17.30;99.90
50804;DHT22;37205;51.434;6.756;2022-07-29T07:01:02;17.30;99.90
50804;DHT22;37205;51.434;6.756;2022-07-29T07:03:28;17.40;99.90
50804;DHT22;37205;51.434;6.756;2022-07-29T07:05:54;17.40;99.90
50804;DHT22;37205;51.434;6.756;2022-07-29T07:08:21;17.50;99.90
50804;DHT22;37205;51.434;6.756;2022-07-29T07:10:47;17.50;99.90
50804;DHT22;37205;51.434;6.756;2022-07-29T07:13:13;17.50;99.90
50804;DHT22;37205;51.434;6.756;2022-07-29T07:15:39;17.50;99.90
50804;DHT22;37205;51.434;6.756;2022-07-29T07:18:06;17.50;99.90
50804;DHT22;37205;51.434;6.756;2022-07-29T07:20:32;17.50;99.90
50804;DHT22;37205;51.434;6.756;2022-07-29T07:22:58;17.50;99.90
50804;DHT22;37205;51.434;6.756;2022-07-29T07:25:24;17.50;99.90
50804;DHT22;37205;51.434;6.756;2022-07-29T07:27:49;17.60;99.90
50804;DHT22;37205;51.434;6.756;2022-07-29T07:30:15;17.60;99.90
50804;DHT22;37205;51.434;6.756;2022-07-29T07:32:41;17.50;99.90
50804;DHT22;37205;51.434;6.756;2022-07-29T07:35:08;17.50;99.90
50804;DHT22;37205;51.434;6.756;2022-07-29T07:37:34;17.50;99.90
50804;DHT22;37205;51.434;6.756;2022-07-29T07:40:00;17.60;99.90
50804;DHT22;37205;51.434;6.756;2022-07-29T07:42:26;17.60;99.90
50804;DHT22;37205;51.434;6.756;2022-07-29T07:44:51;17.60;99.90
50804;DHT22;37205;51.434;6.756;2022-07-29T07:47:18;17.60;99.90
50804;DHT22;37205;51.434;6.756;2022-07-29T07:49:48;17.60;99.90
50804;DHT22;37205;51.434;6.756;2022-07-29T07:52:15;17.60;99.90
50804;DHT22;37205;51.434;6.756;2022-07-29T07:54:41;17.60;99.90
50804;DHT22;37205;51.434;6.756;2022-07-29T07:57:08;17.70;99.90
50804;DHT22;37205;51.434;6.756;2022-07-29T07:59:34;17.70;99.90
50804;DHT22;37205;51.434;6.756;2022-07-29T08:01:59;17.70;99.90
50804;DHT22;37205;51.434;6.756;2022-07-29T08:04:26;17.50;99.90
50804;DHT22;37205;51.434;6.756;2022-07-29T08:06:52;17.60;99.90
50804;DHT22;37205;51.434;6.756;2022-07-29T08:09:22;17.70;99.90
50804;DHT22;37205;51.434;6.756;2022-07-29T08:11:48;17.70;99.90
50804;DHT22;37205;51.434;6.756;2022-07-29T08:14:13;17.70;99.90
50804;DHT22;37205;51.434;6.756;2022-07-29T08:16:40;17.80;99.90
50804;DHT22;37205;51.434;6.756;2022-07-29T08:19:06;17.70;99.90
50804;DHT22;37205;51.434;6.756;2022-07-29T08:21:32;17.60;99.90
50804;DHT22;37205;51.434;6.756;2022-07-29T08:23:57;17.60;99.90
50804;DHT22;37205;51.434;6.756;2022-07-29T08:26:42;17.60;99.90
50804;DHT22;37205;51.434;6.756;2022-07-29T08:29:08;17.60;99.90
50804;DHT22;37205;51.434;6.756;2022-07-29T08:31:38;17.60;99.90
50804;DHT22;37205;51.434;6.756;2022-07-29T08:34:04;17.60;99.90
50804;DHT22;37205;51.434;6.756;2022-07-29T08:36:30;17.60;99.90
50804;DHT22;37205;51.434;6.756;2022-07-29T08:38:56;17.50;99.90
50804;DHT22;37205;51.434;6.756;2022-07-29T08:41:22;17.50;99.90
50804;DHT22;37205;51.434;6.756;2022-07-29T08:43:48;17.50;99.90
50804;DHT22;37205;51.434;6.756;2022-07-29T08:46:14;17.60;99.90
50804;DHT22;37205;51.434;6.756;2022-07-29T08:48:41;17.60;99.90
50804;DHT22;37205;51.434;6.756;2022-07-29T08:51:07;17.50;99.90
50804;DHT22;37205;51.434;6.756;2022-07-29T08:53:33;17.60;99.90
50804;DHT22;37205;51.434;6.756;2022-07-29T08:55:59;17.70;99.90
50804;DHT22;37205;51.434;6.756;2022-07-29T08:58:26;17.80;99.90
50804;DHT22;37205;51.434;6.756;2022-07-29T09:00:55;17.80;99.90
50804;DHT22;37205;51.434;6.756;2022-07-29T09:03:23;17.90;99.90
50804;DHT22;37205;51.434;6.756;2022-07-29T09:05:49;18.00;99.90
50804;DHT22;37205;51.434;6.756;2022-07-29T09:08:16;18.10;99.90
50804;DHT22;37205;51.434;6.756;2022-07-29T09:10:42;18.10;99.90
50804;DHT22;37205;51.434;6.756;2022-07-29T09:13:08;18.20;99.90
50804;DHT22;37205;51.434;6.756;2022-07-29T09:15:33;18.30;99.90
50804;DHT22;37205;51.434;6.756;2022-07-29T09:17:59;18.30;99.90
50804;DHT22;37205;51.434;6.756;2022-07-29T09:20:26;18.40;99.90
50804;DHT22;37205;51.434;6.756;2022-07-29T09:23:12;18.40;99.90
50804;DHT22;37205;51.434;6.756;2022-07-29T09:25:40;18.50;99.90
50804;DHT22;37205;51.434;6.756;2022-07-29T09:28:16;18.30;99.90
50804;DHT22;37205;51.434;6.756;2022-07-29T09:30:52;18.40;99.90
50804;DHT22;37205;51.434;6.756;2022-07-29T09:33:18;18.40;99.90
50804;DHT22;37205;51.434;6.756;2022-07-29T09:35:44;18.30;99.90
50804;DHT22;37205;51.434;6.756;2022-07-29T09:38:11;18.30;99.90
50804;DHT22;37205;51.434;6.756;2022-07-29T09:40:37;18.30;99.90
50804;DHT22;37205;51.434;6.756;2022-07-29T09:43:10;18.30;99.90
50804;DHT22;37205;51.434;6.756;2022-07-29T09:45:36;18.40;99.90
50804;DHT22;37205;51.434;6.756;2022-07-29T09:48:17;18.30;99.90
50804;DHT22;37205;51.434;6.756;2022-07-29T09:50:44;18.20;99.90
50804;DHT22;37205;51.434;6.756;2022-07-29T09:53:11;18.30;99.90
50804;DHT22;37205;51.434;6.756;2022-07-29T09:55:47;18.40;99.90
50804;DHT22;37205;51.434;6.756;2022-07-29T09:58:18;18.30;99.90
50804;DHT22;37205;51.434;6.756;2022-07-29T10:00:44;18.30;99.90
50804;DHT22;37205;51.434;6.756;2022-07-29T10:03:11;18.40;99.90
50804;DHT22;37205;51.434;6.756;2022-07-29T10:05:37;18.40;99.90
50804;DHT22;37205;51.434;6.756;2022-07-29T10:08:03;18.50;99.90
50804;DHT22;37205;51.434;6.756;2022-07-29T10:10:30;18.50;99.90
50804;DHT22;37205;51.434;6.756;2022-07-29T10:13:00;18.50;99.90
50804;DHT22;37205;51.434;6.756;2022-07-29T10:15:29;18.60;99.90
50804;DHT22;37205;51.434;6.756;2022-07-29T10:17:56;18.50;99.90
50804;DHT22;37205;51.434;6.756;2022-07-29T10:20:23;18.50;99.90
50804;DHT22;37205;51.434;6.756;2022-07-29T10:22:50;18.60;99.90
50804;DHT22;37205;51.434;6.756;2022-07-29T10:25:17;18.60;99.90
50804;DHT22;37205;51.434;6.756;2022-07-29T10:27:43;18.70;99.90
50804;DHT22;37205;51.434;6.756;2022-07-29T10:30:10;18.70;99.90
50804;DHT22;37205;51.434;6.756;2022-07-29T10:41:52;19.20;99.90
50804;DHT22;37205;51.434;6.756;2022-07-29T10:44:22;19.40;99.90
50804;DHT22;37205;51.434;6.756;2022-07-29T10:46:49;19.40;99.90
50804;DHT22;37205;51.434;6.756;2022-07-29T10:49:20;19.50;99.90
50804;DHT22;37205;51.434;6.756;2022-07-29T10:52:06;19.60;99.90
50804;DHT22;37205;51.434;6.756;2022-07-29T10:54:38;19.60;99.90
50804;DHT22;37205;51.434;6.756;2022-07-29T10:57:24;19.70;99.90
50804;DHT22;37205;51.434;6.756;2022-07-29T11:07:27;20.00;99.90
50804;DHT22;37205;51.434;6.756;2022-07-29T11:10:21;20.10;99.90
50804;DHT22;37205;51.434;6.756;2022-07-29T11:12:47;20.20;99.90
50804;DHT22;37205;51.434;6.756;2022-07-29T11:15:21;20.30;99.90
50804;DHT22;37205;51.434;6.756;2022-07-29T11:20:41;20.50;99.90
50804;DHT22;37205;51.434;6.756;2022-07-29T11:28:52;20.70;99.90
50804;DHT22;37205;51.434;6.756;2022-07-29T11:31:39;20.80;99.90
50804;DHT22;37205;51.434;6.756;2022-07-29T11:34:29;20.80;99.90
50804;DHT22;37205;51.434;6.756;2022-07-29T11:45:11;21.10;99.90
50804;DHT22;37205;51.434;6.756;2022-07-29T11:47:47;21.10;99.90
50804;DHT22;37205;51.434;6.756;2022-07-29T11:50:16;21.30;99.90
50804;DHT22;37205;51.434;6.756;2022-07-29T11:52:45;21.30;99.90
50804;DHT22;37205;51.434;6.756;2022-07-29T11:55:16;21.40;99.90
50804;DHT22;37205;51.434;6.756;2022-07-29T11:57:53;21.50;99.90
50804;DHT22;37205;51.434;6.756;2022-07-29T12:00:40;21.60;99.90
50804;DHT22;37205;51.434;6.756;2022-07-29T12:03:10;21.70;99.90
50804;DHT22;37205;51.434;6.756;2022-07-29T12:08:10;21.70;99.90
50804;DHT22;37205;51.434;6.756;2022-07-29T12:10:36;21.70;99.90
50804;DHT22;37205;51.434;6.756;2022-07-29T12:13:03;21.70;99.90
50804;DHT22;37205;51.434;6.756;2022-07-29T12:15:29;21.70;99.90
50804;DHT22;37205;51.434;6.756;2022-07-29T12:17:58;21.80;99.90
50804;DHT22;37205;51.434;6.756;2022-07-29T12:20:25;21.80;99.90
50804;DHT22;37205;51.434;6.756;2022-07-29T12:22:51;21.80;99.90
50804;DHT22;37205;51.434;6.756;2022-07-29T12:25:19;21.70;99.90
50804;DHT22;37205;51.434;6.756;2022-07-29T12:27:45;21.70;99.90
50804;DHT22;37205;51.434;6.756;2022-07-29T12:30:13;21.70;99.90
50804;DHT22;37205;51.434;6.756;2022-07-29T12:32:40;21.80;99.90
50804;DHT22;37205;51.434;6.756;2022-07-29T12:35:10;21.70;99.90
50804;DHT22;37205;51.434;6.756;2022-07-29T12:37:38;21.60;99.90
50804;DHT22;37205;51.434;6.756;2022-07-29T12:40:06;21.70;99.90
50804;DHT22;37205;51.434;6.756;2022-07-29T12:42:32;21.60;99.90
50804;DHT22;37205;51.434;6.756;2022-07-29T12:44:59;21.70;99.90
50804;DHT22;37205;51.434;6.756;2022-07-29T12:47:25;21.70;99.90
50804;DHT22;37205;51.434;6.756;2022-07-29T12:49:52;21.80;99.90
50804;DHT22;37205;51.434;6.756;2022-07-29T12:52:33;21.80;99.90
50804;DHT22;37205;51.434;6.756;2022-07-29T12:55:00;21.80;99.90
50804;DHT22;37205;51.434;6.756;2022-07-29T12:57:26;21.80;99.90
50804;DHT22;37205;51.434;6.756;2022-07-29T13:00:05;21.80;99.90
50804;DHT22;37205;51.434;6.756;2022-07-29T13:02:33;21.90;99.90
50804;DHT22;37205;51.434;6.756;2022-07-29T13:05:00;22.00;99.90
50804;DHT22;37205;51.434;6.756;2022-07-29T13:07:31;22.00;99.90
50804;DHT22;37205;51.434;6.756;2022-07-29T13:10:35;22.10;99.90
50804;DHT22;37205;51.434;6.756;2022-07-29T13:13:12;22.00;99.90
50804;DHT22;37205;51.434;6.756;2022-07-29T13:15:40;22.00;99.90
50804;DHT22;37205;51.434;6.756;2022-07-29T13:18:33;21.90;99.90
50804;DHT22;37205;51.434;6.756;2022-07-29T13:21:12;21.90;99.90
50804;DHT22;37205;51.434;6.756;2022-07-29T13:23:38;22.00;99.90
50804;DHT22;37205;51.434;6.756;2022-07-29T13:26:10;22.10;99.90
50804;DHT22;37205;51.434;6.756;2022-07-29T13:28:37;22.10;99.90
50804;DHT22;37205;51.434;6.756;2022-07-29T13:31:03;22.10;99.90
50804;DHT22;37205;51.434;6.756;2022-07-29T13:33:29;22.30;99.90
50804;DHT22;37205;51.434;6.756;2022-07-29T13:35:55;22.60;99.90
50804;DHT22;37205;51.434;6.756;2022-07-29T13:38:21;22.80;99.90
50804;DHT22;37205;51.434;6.756;2022-07-29T13:40:47;23.20;99.90
50804;DHT22;37205;51.434;6.756;2022-07-29T13:43:13;23.50;99.90
50804;DHT22;37205;51.434;6.756;2022-07-29T13:45:38;23.60;99.90
50804;DHT22;37205;51.434;6.756;2022-07-29T13:48:07;23.90;99.90
50804;DHT22;37205;51.434;6.756;2022-07-29T13:50:51;24.10;99.90
50804;DHT22;37205;51.434;6.756;2022-07-29T13:53:16;24.30;99.90
50804;DHT22;37205;51.434;6.756;2022-07-29T13:55:42;24.60;99.90
50804;DHT22;37205;51.434;6.756;2022-07-29T13:58:08;24.70;99.90
50804;DHT22;37205;51.434;6.756;2022-07-29T14:00:33;25.00;99.90
50804;DHT22;37205;51.434;6.756;2022-07-29T14:02:59;25.00;99.90
50804;DHT22;37205;51.434;6.756;2022-07-29T14:05:24;24.80;99.90
50804;DHT22;37205;51.434;6.756;2022-07-29T14:07:50;25.00;99.90
50804;DHT22;37205;51.434;6.756;2022-07-29T14:10:15;25.30;99.90
50804;DHT22;37205;51.434;6.756;2022-07-29T14:12:41;25.20;99.90
50804;DHT22;37205;51.434;6.756;2022-07-29T14:15:07;25.40;99.90
50804;DHT22;37205;51.434;6.756;2022-07-29T14:17:33;25.80;99.90
50804;DHT22;37205;51.434;6.756;2022-07-29T14:19:59;26.10;99.90
50804;DHT22;37205;51.434;6.756;2022-07-29T14:22:24;26.40;99.90
50804;DHT22;37205;51.434;6.756;2022-07-29T14:24:50;26.50;99.90
50804;DHT22;37205;51.434;6.756;2022-07-29T14:27:16;26.30;99.90
50804;DHT22;37205;51.434;6.756;2022-07-29T14:29:42;25.90;99.90
50804;DHT22;37205;51.434;6.756;2022-07-29T14:32:08;26.30;99.90
50804;DHT22;37205;51.434;6.756;2022-07-29T14:34:36;26.50;99.60
50804;DHT22;37205;51.434;6.756;2022-07-29T14:37:02;26.60;99.90
50804;DHT22;37205;51.434;6.756;2022-07-29T14:39:30;26.60;99.30
50804;DHT22;37205;51.434;6.756;2022-07-29T14:41:56;26.80;99.00
50804;DHT22;37205;51.434;6.756;2022-07-29T14:44:21;27.30;99.10
50804;DHT22;37205;51.434;6.756;2022-07-29T14:46:47;27.30;97.90
50804;DHT22;37205;51.434;6.756;2022-07-29T14:49:12;27.60;97.50
50804;DHT22;37205;51.434;6.756;2022-07-29T14:51:38;27.40;97.90
50804;DHT22;37205;51.434;6.756;2022-07-29T14:54:03;27.50;96.80
50804;DHT22;37205;51.434;6.756;2022-07-29T14:56:29;27.60;97.30
50804;DHT22;37205;51.434;6.756;2022-07-29T14:58:56;27.90;96.10
50804;DHT22;37205;51.434;6.756;2022-07-29T15:01:24;28.10;96.80
50804;DHT22;37205;51.434;6.756;2022-07-29T15:03:50;28.50;96.50
50804;DHT22;37205;51.434;6.756;2022-07-29T15:06:16;28.30;95.60
50804;DHT22;37205;51.434;6.756;2022-07-29T15:08:41;28.30;96.10
50804;DHT22;37205;51.434;6.756;2022-07-29T15:11:07;28.30;96.00
50804;DHT22;37205;51.434;6.756;2022-07-29T15:13:33;28.10;96.10
50804;DHT22;37205;51.434;6.756;2022-07-29T15:15:59;28.10;95.80
50804;DHT22;37205;51.434;6.756;2022-07-29T15:18:24;27.70;95.90
50804;DHT22;37205;51.434;6.756;2022-07-29T15:20:53;28.00;96.20
50804;DHT22;37205;51.434;6.756;2022-07-29T15:23:18;28.20;95.80
50804;DHT22;37205;51.434;6.756;2022-07-29T15:25:44;27.90;96.00
50804;DHT22;37205;51.434;6.756;2022-07-29T15:28:09;27.70;95.30
50804;DHT22;37205;51.434;6.756;2022-07-29T15:30:36;27.50;94.60
50804;DHT22;37205;51.434;6.756;2022-07-29T15:33:07;27.60;94.40
50804;DHT22;37205;51.434;6.756;2022-07-29T15:35:33;27.60;94.50
50804;DHT22;37205;51.434;6.756;2022-07-29T15:37:59;27.90;94.70
50804;DHT22;37205;51.434;6.756;2022-07-29T15:40:24;28.30;94.70
50804;DHT22;37205;51.434;6.756;2022-07-29T15:42:50;28.60;94.30
50804;DHT22;37205;51.434;6.756;2022-07-29T15:45:16;28.90;92.80
50804;DHT22;37205;51.434;6.756;2022-07-29T15:47:41;28.80;92.60
50804;DHT22;37205;51.434;6.756;2022-07-29T15:50:07;28.40;91.90
50804;DHT22;37205;51.434;6.756;2022-07-29T15:52:38;28.20;92.00
50804;DHT22;37205;51.434;6.756;2022-07-29T15:55:04;28.00;92.00
50804;DHT22;37205;51.434;6.756;2022-07-29T15:57:30;27.50;92.50
50804;DHT22;37205;51.434;6.756;2022-07-29T15:59:56;27.40;92.80
50804;DHT22;37205;51.434;6.756;2022-07-29T16:02:21;27.70;92.90
50804;DHT22;37205;51.434;6.756;2022-07-29T16:04:47;27.90;92.70
50804;DHT22;37205;51.434;6.756;2022-07-29T16:07:13;27.70;92.10
50804;DHT22;37205;51.434;6.756;2022-07-29T16:09:38;27.50;92.90
50804;DHT22;37205;51.434;6.756;2022-07-29T16:12:04;27.60;92.30
50804;DHT22;37205;51.434;6.756;2022-07-29T16:14:30;27.40;92.80
50804;DHT22;37205;51.434;6.756;2022-07-29T16:16:56;26.90;92.80
50804;DHT22;37205;51.434;6.756;2022-07-29T16:19:21;27.10;92.70
50804;DHT22;37205;51.434;6.756;2022-07-29T16:21:47;27.20;93.00
50804;DHT22;37205;51.434;6.756;2022-07-29T16:24:12;27.30;93.50
50804;DHT22;37205;51.434;6.756;2022-07-29T16:26:38;27.20;93.70
50804;DHT22;37205;51.434;6.756;2022-07-29T16:29:04;27.30;93.80